Flight Track Log - Related Links

Times and Time Zones

All times are in EDT time to prevent confusion due to time zone crossing. See the CHQ6134 flight status page for this flight to view local times or setup timezone preferences in your user account.

Time Position Orientation Groundspeed Altitude Reporting Facility
EDT Latitude Longitude Course Direction KTS MPH feet Rate Location/Type
Sat 05:52:13 PM 38.9667 -77.5167 90° East 198 228 2,000  Level Potomac TRACON
Sat 05:53:07 PM 39.0000 -77.5833 303° West 245 282 3,700 2,250 Climbing Potomac TRACON
Sat 05:54:00 PM 38.9695 -77.0715 83° East  Level FlightAware Approximate
Sat 05:54:13 PM 39.0667 -77.5833 360° North 270 311 6,500  Level Potomac TRACON
Sat 05:55:00 PM 38.9823 -76.9434 83° East  Level FlightAware Approximate
Sat 05:55:07 PM 39.1167 -77.5333 38° Northeast 273 314 8,500  Level Potomac TRACON
Sat 05:56:00 PM 38.9925 -76.8148 84° East  Level FlightAware Approximate
Sat 05:57:00 PM 39.0000 -76.6861 90° East  Level FlightAware Approximate
Sat 05:57:08 PM 39.1511 -77.3181 78° East 317 365 10,000  Level Washington Center
Sat 05:58:06 PM 39.1361 -77.1919 99° East 334 384 11,800 1,714 Climbing Washington Center
Sat 05:59:07 PM 39.1192 -77.0658 100° East 342 394 13,400 1,475 Climbing Washington Center
Sat 06:00:08 PM 39.1017 -76.9422 100° East 354 407 14,800 1,388 Climbing Washington Center
Sat 06:01:08 PM 39.0844 -76.8164 100° East 354 407 16,200 1,119 Climbing Washington Center
Sat 06:02:06 PM 39.0667 -76.6903 100° East 354 407 17,000 403 Climbing Washington Center
Sat 06:03:07 PM 39.0531 -76.5778 99° East 341 392 17,000  Level Washington Center
Sat 06:04:08 PM 39.0353 -76.4656 101° East 330 380 17,000  Level Washington Center
Sat 06:05:06 PM 39.0069 -76.3503 108° East 325 374 17,000  Level Washington Center
Sat 06:06:07 PM 38.9803 -76.2431 108° East 325 374 17,000 -49 Level Washington Center
Sat 06:07:08 PM 38.9933 -76.1258 82° East 312 359 16,900 -50 Descending Washington Center
Sat 06:08:08 PM 39.0086 -76.0056 81° East 319 367 16,900  Level Washington Center
Sat 06:09:06 PM 39.0297 -75.8883 77° East 330 380 16,900  Level Washington Center
Sat 06:10:06 PM 39.0467 -75.7706 79° East 330 380 16,900  Level Washington Center
Sat 06:11:07 PM 39.0633 -75.6503 80° East 335 386 16,900  Level Washington Center
Sat 06:12:07 PM 39.0675 -75.5328 87° East 330 380 16,900  Level Washington Center
Sat 06:13:08 PM 39.0717 -75.4178 87° East 330 380 16,900  Level Washington Center
Sat 06:14:08 PM 39.0817 -75.2975 84° East 330 380 16,900  Level Washington Center
Sat 06:15:08 PM 39.1356 -75.1903 57° Northeast 335 386 16,900  Level Washington Center
Sat 06:16:06 PM 39.1894 -75.0856 56° Northeast 335 386 16,900  Level Washington Center
Sat 06:18:14 PM 39.3064 -74.8681 55° Northeast 344 396 16,900  Level New York Center
Sat 06:19:14 PM 39.3622 -74.7611 56° Northeast 344 396 16,900  Level New York Center
Sat 06:20:15 PM 39.4158 -74.6567 56° Northeast 344 396 16,900  Level New York Center
Sat 06:21:15 PM 39.4714 -74.5494 56° Northeast 344 396 16,900 50 Level New York Center
Sat 06:22:15 PM 39.5225 -74.4525 56° Northeast 344 396 17,000 51 Climbing New York Center
Sat 06:23:13 PM 39.5864 -74.3375 54° Northeast 355 409 17,000  Level New York Center
Sat 06:24:13 PM 39.6439 -74.2325 55° Northeast 355 409 17,000  Level New York Center
Sat 06:25:14 PM 39.7006 -74.1436 50° Northeast 355 409 17,000  Level New York Center
Sat 06:26:14 PM 39.7758 -74.0606 40° Northeast 355 409 17,000 -1,140 Level New York Center
Sat 06:27:15 PM 39.8594 -73.9781 37° Northeast 339 390 14,700 -2,471 Descending New York Center
Sat 06:28:13 PM 39.9444 -73.9169 29° Northeast 339 390 12,100 -1,932 Descending New York Center
Sat 06:29:13 PM 40.0211 -73.8608 29° Northeast 334 384 10,900 -541 Descending New York Center
Sat 06:30:15 PM 40.0894 -73.8775 349° North 278 320 11,000 -47 Climbing New York Center
Sat 06:31:21 PM 40.1833 -73.8667 North 303 349 10,800 -857 Descending New York TRACON
Sat 06:32:21 PM 40.2167 -73.7667 66° East 287 330 9,200 -1,632 Descending New York TRACON
Sat 06:33:15 PM 40.2500 -73.7000 57° Northeast 288 331 7,700 -1,211 Descending New York TRACON
Sat 06:34:15 PM 40.3167 -73.6500 30° Northeast 263 303 6,900 -350 Descending New York TRACON
Sat 06:35:15 PM 40.3731 -73.6178 24° Northeast 248 285 7,000 51 Climbing New York Center
Sat 06:36:13 PM 40.4347 -73.5714 30° Northeast 236 272 7,000 -101 Level New York Center
Sat 06:37:14 PM 40.4878 -73.5300 31° Northeast 236 272 6,800 -844 Descending New York Center
Sat 06:38:21 PM 40.5667 -73.4667 31° Northeast 236 272 5,200 -1,323 Descending New York TRACON
Sat 06:39:21 PM 40.6167 -73.4333 27° Northeast 232 267 4,000 -600 Descending New York TRACON
Sat 06:40:21 PM 40.6667 -73.3833 37° Northeast 230 265 4,000  Level New York TRACON
Sat 06:41:15 PM 40.7167 -73.3833 360° North 234 269 4,000 -421 Level New York TRACON
Sat 06:42:15 PM 40.7500 -73.4500 303° West 217 250 3,200 -1,000 Descending New York TRACON
Sat 06:43:15 PM 40.7667 -73.5167 288° West 214 246 2,000 -600 Descending New York TRACON
Sat 06:44:15 PM 40.7833 -73.6000 285° West 213 245 2,000  Level New York TRACON
Sat 06:45:15 PM 40.7500 -73.6667 237° Southwest 187 215 2,000 -100 Level New York TRACON
Sat 06:46:15 PM 40.7167 -73.7000 217° Southwest 132 152 1,800 -200 Descending New York TRACON

Login

Don't have an account? Register now (free) for customized features, flight alerts, and more!